createdAt,value
2023-01-02T00:01:19.564Z,100838.25
2023-01-02T00:03:46.771Z,100840.16
2023-01-02T00:06:14.379Z,100830.50
2023-01-02T00:08:41.622Z,100835.84
2023-01-02T00:11:08.725Z,100827.94
2023-01-02T00:13:36.709Z,100834.94
2023-01-02T00:16:03.921Z,100829.81
2023-01-02T00:18:30.948Z,100828.13
2023-01-02T00:21:02.914Z,100823.09
2023-01-02T00:23:30.022Z,100818.84
2023-01-02T00:25:57.127Z,100811.91
2023-01-02T00:28:24.173Z,100818.09
2023-01-02T00:30:51.597Z,100814.41
2023-01-02T00:33:18.651Z,100810.09
2023-01-02T00:35:45.717Z,100807.47
2023-01-02T00:38:12.813Z,100807.38
2023-01-02T00:40:40.169Z,100809.09
2023-01-02T00:43:07.901Z,100808.22
2023-01-02T00:45:34.949Z,100805.66
2023-01-02T00:48:01.973Z,100802.16
2023-01-02T00:50:28.955Z,100794.41
2023-01-02T00:52:56.102Z,100786.63
2023-01-02T00:55:23.206Z,100782.28
2023-01-02T00:57:50.207Z,100789.19
2023-01-02T01:00:23.627Z,100789.13
2023-01-02T01:02:56.225Z,100791.69
2023-01-02T01:05:27.908Z,100788.25
2023-01-02T01:07:56.253Z,100784.75
2023-01-02T01:10:25.463Z,100776.91
2023-01-02T01:12:52.800Z,100778.69
2023-01-02T01:15:19.890Z,100768.28
2023-01-02T01:17:47.068Z,100786.44
2023-01-02T01:20:14.210Z,100777.81
2023-01-02T01:22:41.203Z,100779.59
2023-01-02T01:25:08.611Z,100776.16
2023-01-02T01:27:35.980Z,100771.03
2023-01-02T01:30:05.173Z,100767.66
2023-01-02T01:32:32.216Z,100773.66
2023-01-02T01:34:59.285Z,100774.56
2023-01-02T01:37:26.319Z,100769.44
2023-01-02T01:39:56.984Z,100765.09
2023-01-02T01:42:24.320Z,100756.53
2023-01-02T01:44:54.848Z,100757.41
2023-01-02T01:47:36.748Z,100755.72
2023-01-02T01:50:35.449Z,100757.47
2023-01-02T01:53:14.368Z,100760.94
2023-01-02T01:55:46.275Z,100752.31
2023-01-02T01:58:23.768Z,100756.72
2023-01-02T02:00:51.696Z,100758.41
2023-01-02T02:03:22.814Z,100755.84
2023-01-02T02:05:50.381Z,100758.72
2023-01-02T02:08:55.610Z,100757.91
2023-01-02T02:11:22.813Z,100746.63
2023-01-02T02:13:50.840Z,100751.91
2023-01-02T02:16:17.878Z,100754.50
2023-01-02T02:18:56.255Z,100759.66
2023-01-02T02:21:42.872Z,100752.66
2023-01-02T02:24:24.958Z,100758.63
2023-01-02T02:27:00.776Z,100762.94
2023-01-02T02:29:27.741Z,100754.28
2023-01-02T02:32:32.364Z,100756.88
2023-01-02T02:35:03.381Z,100758.56
2023-01-02T02:37:41.177Z,100762.06
2023-01-02T02:40:29.460Z,100751.66
2023-01-02T02:43:38.063Z,100756.91
2023-01-02T02:46:33.147Z,100756.06
2023-01-02T02:49:14.365Z,100749.22
2023-01-02T02:51:53.145Z,100741.59
2023-01-02T02:54:30.623Z,100744.03
2023-01-02T02:56:59.719Z,100744.09
2023-01-02T02:59:28.430Z,100736.44
2023-01-02T03:01:56.210Z,100736.44
2023-01-02T03:04:23.888Z,100733.91
2023-01-02T03:07:24.844Z,100735.66
2023-01-02T03:09:54.549Z,100740.91
2023-01-02T03:12:37.912Z,100728.81
2023-01-02T03:15:07.841Z,100723.69
2023-01-02T03:18:00.088Z,100722.00
2023-01-02T03:20:32.787Z,100725.53
2023-01-02T03:23:05.113Z,100729.88
2023-01-02T03:25:36.859Z,100731.69
2023-01-02T03:28:07.925Z,100731.75
2023-01-02T03:30:38.307Z,100723.97
2023-01-02T03:33:19.770Z,100721.44
2023-01-02T03:35:52.385Z,100725.78
2023-01-02T03:38:29.413Z,100721.50
2023-01-02T03:41:11.545Z,100727.59
2023-01-02T03:43:41.384Z,100718.97
2023-01-02T03:46:17.732Z,100720.66
2023-01-02T03:48:56.543Z,100725.09
2023-01-02T03:51:23.587Z,100715.50
2023-01-02T03:53:52.919Z,100717.31
2023-01-02T03:56:38.167Z,100725.97
2023-01-02T03:59:14.446Z,100725.13
2023-01-02T04:01:49.582Z,100721.66
2023-01-02T04:04:51.904Z,100730.38
2023-01-02T04:07:30.479Z,100723.41
2023-01-02T04:10:00.373Z,100735.50
2023-01-02T04:12:32.463Z,100737.31
2023-01-02T04:15:05.477Z,100739.91
2023-01-02T04:17:38.788Z,100740.75
2023-01-02T04:20:10.724Z,100726.91
2023-01-02T04:22:53.171Z,100733.03
2023-01-02T04:25:23.054Z,100733.09
2023-01-02T04:28:01.205Z,100742.56
2023-01-02T04:30:30.816Z,100735.63
2023-01-02T04:33:03.787Z,100745.16
2023-01-02T04:35:30.937Z,100747.69
2023-01-02T04:38:08.390Z,100742.50
2023-01-02T04:40:38.000Z,100739.84
2023-01-02T04:43:21.950Z,100752.81
2023-01-02T04:45:49.425Z,100750.16
2023-01-02T04:48:17.178Z,100757.06
2023-01-02T04:50:44.868Z,100737.13
2023-01-02T04:53:12.163Z,100746.72
2023-01-02T04:55:39.239Z,100754.44
2023-01-02T04:58:07.822Z,100748.41
2023-01-02T05:00:34.864Z,100748.41
2023-01-02T05:03:03.676Z,100724.09
2023-01-02T05:05:31.297Z,100739.78
2023-01-02T05:07:59.153Z,100751.00
2023-01-02T05:10:26.260Z,100735.19
2023-01-02T05:12:53.430Z,100757.84
2023-01-02T05:15:20.960Z,100753.50
2023-01-02T05:17:48.126Z,100759.53
2023-01-02T05:20:15.180Z,100752.56
2023-01-02T05:23:04.000Z,100767.31
2023-01-02T05:25:36.270Z,100770.75
2023-01-02T05:28:04.300Z,100782.88
2023-01-02T05:30:31.566Z,100776.78
2023-01-02T05:32:58.668Z,100775.88
2023-01-02T05:35:31.890Z,100774.97
2023-01-02T05:38:01.609Z,100781.13
2023-01-02T05:40:28.710Z,100775.03
2023-01-02T05:42:55.777Z,100775.94
2023-01-02T05:45:25.714Z,100783.72
2023-01-02T05:47:52.767Z,100787.22
2023-01-02T05:50:19.844Z,100800.94
2023-01-02T05:52:46.869Z,100798.34
2023-01-02T05:55:13.911Z,100819.06
2023-01-02T05:57:41.234Z,100857.69
2023-01-02T06:00:09.210Z,100862.41
2023-01-02T06:02:37.559Z,100884.13
2023-01-02T06:05:05.889Z,100895.69
2023-01-02T06:07:33.336Z,100913.59
2023-01-02T06:10:00.389Z,100916.00
2023-01-02T06:12:27.390Z,100922.28
2023-01-02T06:14:54.448Z,100909.84
2023-01-02T06:17:21.543Z,100912.41
2023-01-02T06:19:53.758Z,100921.69
2023-01-02T06:22:21.304Z,100943.03
2023-01-02T06:24:48.387Z,100948.97
2023-01-02T06:27:15.439Z,100960.81
2023-01-02T06:29:42.441Z,100966.78
2023-01-02T06:32:09.501Z,100968.28
2023-01-02T06:34:37.537Z,100977.63
2023-01-02T06:37:09.422Z,100990.63
2023-01-02T06:39:37.545Z,100994.84
2023-01-02T06:42:04.687Z,101005.00
2023-01-02T06:44:32.203Z,101006.84
2023-01-02T06:46:59.183Z,101015.25
2023-01-02T06:49:26.142Z,101015.31
2023-01-02T06:51:53.147Z,101032.38
2023-01-02T06:54:20.289Z,101034.94
2023-01-02T06:56:47.376Z,101028.97
2023-01-02T06:59:14.364Z,101041.66
2023-01-02T07:01:41.809Z,101048.25
2023-01-02T07:04:17.226Z,101052.41
2023-01-02T07:06:44.242Z,101054.16
2023-01-02T07:09:11.333Z,101061.25
2023-01-02T07:11:38.772Z,101077.41
2023-01-02T07:14:06.690Z,101083.22
2023-01-02T07:16:34.031Z,101093.72
2023-01-02T07:19:01.689Z,101089.97
2023-01-02T07:21:29.819Z,101083.88
2023-01-02T07:23:56.855Z,101078.63
2023-01-02T07:26:23.920Z,101096.47
2023-01-02T07:28:51.375Z,101091.94
2023-01-02T07:31:20.329Z,101101.47
2023-01-02T07:33:47.459Z,101117.03
2023-01-02T07:36:18.675Z,101127.34
2023-01-02T07:38:51.153Z,101143.69
2023-01-02T07:41:20.975Z,101151.38
2023-01-02T07:43:48.587Z,101161.50
2023-01-02T07:46:18.320Z,101170.06
2023-01-02T07:48:46.286Z,101170.84
2023-01-02T07:51:15.798Z,101185.63
2023-01-02T07:53:44.343Z,101192.00
2023-01-02T07:56:11.538Z,101198.94
2023-01-02T07:58:38.714Z,101188.13
2023-01-02T08:01:08.524Z,101211.47
2023-01-02T08:03:37.636Z,101214.06
2023-01-02T08:06:07.573Z,101222.41
2023-01-02T08:08:34.920Z,101237.97
2023-01-02T08:11:10.165Z,101247.34
2023-01-02T08:13:37.821Z,101260.19
2023-01-02T08:16:13.879Z,101241.19
2023-01-02T08:18:40.864Z,101257.84
2023-01-02T08:21:08.688Z,101271.47
2023-01-02T08:23:38.830Z,101274.06
2023-01-02T08:26:08.572Z,101266.06
2023-01-02T08:28:37.499Z,101284.25
2023-01-02T08:31:15.603Z,101276.56
2023-01-02T08:33:42.740Z,101290.22
2023-01-02T08:36:11.297Z,101287.47
2023-01-02T08:38:38.421Z,101295.16
2023-01-02T08:41:06.533Z,101296.91
2023-01-02T08:43:35.272Z,101286.38
2023-01-02T08:46:09.605Z,101309.41
2023-01-02T08:48:37.811Z,101300.69
2023-01-02T08:51:05.044Z,101307.75
2023-01-02T08:53:32.274Z,101310.03
2023-01-02T08:56:36.560Z,101317.78
2023-01-02T08:59:09.191Z,101325.47
2023-01-02T09:01:37.689Z,101322.63
2023-01-02T09:04:12.015Z,101343.31
2023-01-02T09:06:40.943Z,101353.50
2023-01-02T09:09:12.086Z,101349.91
2023-01-02T09:11:48.860Z,101361.22
2023-01-02T09:14:17.619Z,101364.75
2023-01-02T09:16:44.805Z,101361.22
2023-01-02T09:19:11.884Z,101371.75
2023-01-02T09:21:38.941Z,101347.94
2023-01-02T09:24:07.707Z,101371.03
2023-01-02T09:26:35.325Z,101378.84
2023-01-02T09:29:03.032Z,101373.53
2023-01-02T09:31:30.379Z,101394.22
2023-01-02T09:33:57.498Z,101391.75
2023-01-02T09:36:24.648Z,101391.09
2023-01-02T09:38:57.680Z,101390.97
2023-01-02T09:41:40.924Z,101405.84
2023-01-02T09:44:16.811Z,101411.94
2023-01-02T09:47:13.403Z,101402.41
2023-01-02T09:49:48.209Z,101415.53
2023-01-02T09:52:22.388Z,101407.84
2023-01-02T09:54:50.916Z,101411.25
2023-01-02T09:57:26.950Z,101421.56
2023-01-02T09:59:59.756Z,101426.88
2023-01-02T10:02:53.905Z,101441.25
2023-01-02T10:05:23.792Z,101435.44
2023-01-02T10:08:14.794Z,101439.06
2023-01-02T10:10:43.967Z,101438.94
2023-01-02T10:13:21.628Z,101435.91
2023-01-02T10:15:52.482Z,101445.00
2023-01-02T10:18:43.470Z,101444.09
2023-01-02T10:21:16.639Z,101442.47
2023-01-02T10:23:49.640Z,101444.34
2023-01-02T10:26:26.034Z,101443.41
2023-01-02T10:29:05.209Z,101449.34
2023-01-02T10:31:41.832Z,101447.00
2023-01-02T10:34:16.883Z,101443.47
2023-01-02T10:36:46.196Z,101439.66
2023-01-02T10:39:18.936Z,101443.19
2023-01-02T10:41:53.217Z,101437.47
2023-01-02T10:44:27.866Z,101430.56
2023-01-02T10:46:55.761Z,101444.56
2023-01-02T10:49:25.521Z,101447.03
2023-01-02T10:52:04.516Z,101458.28
2023-01-02T10:54:50.034Z,101461.63
2023-01-02T10:57:31.057Z,101469.13
2023-01-02T11:00:00.656Z,101475.44
2023-01-02T11:02:40.020Z,101474.53
2023-01-02T11:05:19.046Z,101468.78
2023-01-02T11:07:49.272Z,101469.00
2023-01-02T11:10:31.099Z,101480.19
2023-01-02T11:13:10.760Z,101471.63
2023-01-02T11:15:49.491Z,101481.91
2023-01-02T11:18:24.468Z,101486.28
2023-01-02T11:20:54.610Z,101481.34
2023-01-02T11:23:25.211Z,101491.00
2023-01-02T11:25:54.131Z,101497.16
2023-01-02T11:28:28.692Z,101497.25
2023-01-02T11:31:08.109Z,101495.34
2023-01-02T11:33:38.634Z,101503.09
2023-01-02T11:36:06.726Z,101505.66
2023-01-02T11:38:46.558Z,101503.00
2023-01-02T11:42:30.666Z,101513.34
2023-01-02T11:45:13.447Z,101512.13
2023-01-02T11:47:47.957Z,101507.91
2023-01-02T11:50:33.808Z,101523.66
2023-01-02T11:53:12.908Z,101521.19
2023-01-02T11:55:46.566Z,101506.53
2023-01-02T11:58:35.085Z,101518.63
2023-01-02T12:01:27.719Z,101516.31
2023-01-02T12:03:55.226Z,101517.19
2023-01-02T12:06:25.643Z,101529.56
2023-01-02T12:09:14.230Z,101524.31
2023-01-02T12:12:06.832Z,101531.31
2023-01-02T12:14:52.429Z,101532.09
2023-01-02T12:18:07.881Z,101544.34
2023-01-02T12:20:59.919Z,101526.88
2023-01-02T12:23:47.076Z,101531.31
2023-01-02T12:26:19.202Z,101529.56
2023-01-02T12:29:01.631Z,101546.69
2023-01-02T12:31:43.802Z,101551.84
2023-01-02T12:34:38.373Z,101554.50
2023-01-02T12:37:31.992Z,101551.75
2023-01-02T12:40:40.650Z,101538.66
2023-01-02T12:43:17.438Z,101537.03
2023-01-02T12:46:09.770Z,101545.78
2023-01-02T12:48:51.722Z,101535.53
2023-01-02T12:51:44.592Z,101542.38
2023-01-02T12:54:37.849Z,101538.94
2023-01-02T12:57:14.626Z,101548.56
2023-01-02T13:00:03.473Z,101554.66
2023-01-02T13:02:55.019Z,101560.66
2023-01-02T13:05:45.611Z,101558.66
2023-01-02T13:08:21.196Z,101564.75
2023-01-02T13:10:50.775Z,101563.06
2023-01-02T13:13:18.319Z,101562.06
2023-01-02T13:15:51.884Z,101578.41
2023-01-02T13:18:32.485Z,101579.19
2023-01-02T13:21:31.586Z,101582.75
2023-01-02T13:23:59.464Z,101577.66
2023-01-02T13:26:29.695Z,101564.47
2023-01-02T13:29:10.225Z,101575.06
2023-01-02T13:31:46.935Z,101566.28
2023-01-02T13:34:22.390Z,101568.91
2023-01-02T13:36:58.751Z,101580.19
2023-01-02T13:39:30.654Z,101583.53
2023-01-02T13:42:20.046Z,101568.41
2023-01-02T13:44:51.543Z,101582.34
2023-01-02T13:47:25.609Z,101581.19
2023-01-02T13:50:11.916Z,101572.94
2023-01-02T13:52:40.607Z,101579.50
2023-01-02T13:55:25.154Z,101597.75
2023-01-02T13:58:22.684Z,101594.16
2023-01-02T14:00:56.190Z,101593.09
2023-01-02T14:03:23.537Z,101591.97
2023-01-02T14:05:56.604Z,101594.44
2023-01-02T14:09:02.581Z,101590.84
2023-01-02T14:11:56.684Z,101606.44
2023-01-02T14:14:38.504Z,101606.13
2023-01-02T14:17:36.795Z,101597.38
2023-01-02T14:20:19.163Z,101613.84
2023-01-02T14:22:52.689Z,101613.81
2023-01-02T14:25:21.263Z,101620.59
2023-01-02T14:27:56.119Z,101630.03
2023-01-02T14:30:41.341Z,101623.78
2023-01-02T14:33:10.710Z,101637.00
2023-01-02T14:35:41.330Z,101627.38
2023-01-02T14:38:08.348Z,101635.31
2023-01-02T14:40:41.905Z,101640.47
2023-01-02T14:43:32.071Z,101651.47
2023-01-02T14:46:07.754Z,101650.56
2023-01-02T14:48:34.715Z,101656.50
2023-01-02T14:51:12.342Z,101668.38
2023-01-02T14:53:46.842Z,101669.19
2023-01-02T14:56:19.143Z,101668.38
2023-01-02T14:58:48.841Z,101679.38
2023-01-02T15:01:42.297Z,101681.97
2023-01-02T15:04:20.203Z,101678.38
2023-01-02T15:07:10.354Z,101692.03
2023-01-02T15:09:43.941Z,101692.94
2023-01-02T15:12:44.182Z,101685.91
2023-01-02T15:15:16.317Z,101697.84
2023-01-02T15:17:47.109Z,101707.47
2023-01-02T15:20:21.805Z,101716.84
2023-01-02T15:22:52.490Z,101713.44
2023-01-02T15:25:41.195Z,101714.06
2023-01-02T15:28:25.532Z,101731.34
2023-01-02T15:31:10.932Z,101727.81
2023-01-02T15:33:38.384Z,101737.94
2023-01-02T15:36:34.602Z,101750.75
2023-01-02T15:39:16.996Z,101751.44
2023-01-02T15:41:49.060Z,101746.06
2023-01-02T15:44:43.854Z,101757.94
2023-01-02T15:47:12.638Z,101775.16
2023-01-02T15:49:43.085Z,101779.34
2023-01-02T15:52:36.945Z,101785.19
2023-01-02T15:55:04.464Z,101789.44
2023-01-02T15:57:34.297Z,101789.38
2023-01-02T16:00:01.902Z,101793.63
2023-01-02T16:02:42.098Z,101786.66
2023-01-02T16:05:18.887Z,101797.94
2023-01-02T16:07:51.551Z,101797.56
2023-01-02T16:10:22.139Z,101813.91
2023-01-02T16:12:52.364Z,101812.09
2023-01-02T16:15:24.136Z,101826.78
2023-01-02T16:17:53.482Z,101829.31
2023-01-02T16:20:22.304Z,101823.13
2023-01-02T16:22:59.773Z,101830.75
2023-01-02T16:25:44.400Z,101822.41
2023-01-02T16:28:34.594Z,101838.03
2023-01-02T16:31:17.696Z,101852.56
2023-01-02T16:33:48.432Z,101852.47
2023-01-02T16:36:15.483Z,101858.47
2023-01-02T16:39:02.621Z,101859.31
2023-01-02T16:41:34.767Z,101859.38
2023-01-02T16:44:02.927Z,101871.47
2023-01-02T16:46:31.142Z,101881.75
2023-01-02T16:49:04.976Z,101891.25
2023-01-02T16:51:33.238Z,101890.41
2023-01-02T16:54:00.296Z,101889.94
2023-01-02T16:56:27.355Z,101892.44
2023-01-02T16:58:54.424Z,101899.22
2023-01-02T17:01:23.639Z,101906.53
2023-01-02T17:03:51.346Z,101906.97
2023-01-02T17:06:21.482Z,101907.13
2023-01-02T17:08:48.486Z,101905.94
2023-01-02T17:11:18.278Z,101912.63
2023-01-02T17:13:45.375Z,101920.34
2023-01-02T17:16:12.582Z,101922.75
2023-01-02T17:18:42.577Z,101893.66
2023-01-02T17:21:10.309Z,101926.78
2023-01-02T17:23:38.489Z,101936.91
2023-01-02T17:26:06.772Z,101932.25
2023-01-02T17:28:33.791Z,101925.13
2023-01-02T17:31:00.866Z,101927.47
2023-01-02T17:33:27.943Z,101928.03
2023-01-02T17:35:55.025Z,101923.44
2023-01-02T17:38:22.029Z,101927.72
2023-01-02T17:40:49.196Z,101939.78
2023-01-02T17:43:16.473Z,101931.81
2023-01-02T17:45:43.570Z,101946.28
2023-01-02T17:48:13.399Z,101943.47
2023-01-02T17:50:42.256Z,101952.88
2023-01-02T17:53:09.351Z,101951.72
2023-01-02T17:55:36.647Z,101957.59
2023-01-02T17:58:04.097Z,101971.09
2023-01-02T18:00:31.198Z,101980.41
2023-01-02T18:02:58.332Z,101980.16
2023-01-02T18:05:25.447Z,101987.88
2023-01-02T18:07:52.446Z,101987.69
2023-01-02T18:10:20.885Z,101997.84
2023-01-02T18:12:49.449Z,101994.22
2023-01-02T18:15:20.628Z,101999.00
2023-01-02T18:17:48.625Z,102001.34
2023-01-02T18:20:20.380Z,102012.47
2023-01-02T18:22:50.032Z,102005.47
2023-01-02T18:25:24.049Z,102018.13
2023-01-02T18:27:59.448Z,102018.06
2023-01-02T18:30:27.372Z,102018.75
2023-01-02T18:33:17.177Z,102030.56
2023-01-02T18:36:00.174Z,102029.50
2023-01-02T18:38:45.224Z,102040.56
2023-01-02T18:41:24.025Z,102037.47
2023-01-02T18:43:56.312Z,102051.31
2023-01-02T18:47:04.253Z,102042.47
2023-01-02T18:49:26.939Z,102046.63
2023-01-02T18:52:12.255Z,102054.25
2023-01-02T18:54:45.898Z,102063.47
2023-01-02T18:57:18.107Z,102069.38
2023-01-02T18:59:50.438Z,102077.88
2023-01-02T19:02:23.634Z,102081.16
2023-01-02T19:04:51.642Z,102079.13
2023-01-02T19:07:27.984Z,102086.19
2023-01-02T19:10:17.684Z,102092.03
2023-01-02T19:13:06.829Z,102097.00
2023-01-02T19:15:41.980Z,102100.19
2023-01-02T19:18:14.886Z,102100.69
2023-01-02T19:20:44.952Z,102109.03
2023-01-02T19:23:31.612Z,102107.09
2023-01-02T19:26:12.228Z,102110.31
2023-01-02T19:28:48.770Z,102113.25
2023-01-02T19:31:16.374Z,102128.13
2023-01-02T19:33:51.430Z,102129.63
2023-01-02T19:36:25.391Z,102131.13
2023-01-02T19:38:52.822Z,102132.72
2023-01-02T19:41:40.285Z,102141.28
2023-01-02T19:44:08.193Z,102134.13
2023-01-02T19:46:35.442Z,102140.13
2023-01-02T19:49:02.871Z,102142.78
2023-01-02T19:51:32.160Z,102128.50
2023-01-02T19:54:04.049Z,102151.09
2023-01-02T19:56:32.129Z,102163.03
2023-01-02T19:59:00.588Z,102162.16
2023-01-02T20:01:27.711Z,102156.72
2023-01-02T20:03:54.872Z,102163.44
2023-01-02T20:06:21.904Z,102172.63
2023-01-02T20:08:49.587Z,102173.94
2023-01-02T20:11:35.513Z,102184.91
2023-01-02T20:14:04.492Z,102186.28
2023-01-02T20:16:31.836Z,102186.97
2023-01-02T20:18:59.061Z,102184.81
2023-01-02T20:21:28.281Z,102182.66
2023-01-02T20:23:56.634Z,102194.00
2023-01-02T20:26:23.829Z,102194.59
2023-01-02T20:28:51.538Z,102197.03
2023-01-02T20:31:18.642Z,102205.53
2023-01-02T20:33:45.665Z,102199.03
2023-01-02T20:36:13.909Z,102199.63
2023-01-02T20:38:41.622Z,102201.97
2023-01-02T20:41:08.649Z,102190.16
2023-01-02T20:43:36.853Z,102202.56
2023-01-02T20:46:03.943Z,102212.84
2023-01-02T20:48:32.383Z,102215.31
2023-01-02T20:50:59.455Z,102215.88
2023-01-02T20:53:26.529Z,102227.81
2023-01-02T20:55:53.569Z,102224.03
2023-01-02T20:58:21.516Z,102222.31
2023-01-02T21:00:48.564Z,102225.66
2023-01-02T21:03:15.698Z,102225.53
2023-01-02T21:05:42.990Z,102236.78
2023-01-02T21:08:10.111Z,102240.13
2023-01-02T21:10:38.101Z,102242.69
2023-01-02T21:13:08.347Z,102238.16
2023-01-02T21:15:45.587Z,102247.72
2023-01-02T21:18:19.719Z,102253.63
2023-01-02T21:20:55.593Z,102250.56
2023-01-02T21:23:24.370Z,102257.34
2023-01-02T21:25:52.051Z,102250.94
2023-01-02T21:28:20.240Z,102258.19
2023-01-02T21:30:48.078Z,102254.97
2023-01-02T21:33:17.623Z,102261.44
2023-01-02T21:35:46.201Z,102265.59
2023-01-02T21:38:13.936Z,102264.59
2023-01-02T21:40:41.053Z,102257.47
2023-01-02T21:43:08.783Z,102271.06
2023-01-02T21:45:36.801Z,102264.06
2023-01-02T21:48:04.695Z,102262.09
2023-01-02T21:50:31.757Z,102268.09
2023-01-02T21:52:58.876Z,102268.88
2023-01-02T21:55:26.143Z,102277.16
2023-01-02T21:58:15.822Z,102288.19
2023-01-02T22:00:43.508Z,102287.31
2023-01-02T22:03:10.686Z,102286.06
2023-01-02T22:05:38.157Z,102299.00
2023-01-02T22:08:05.370Z,102305.69
2023-01-02T22:10:33.041Z,102306.47
2023-01-02T22:13:00.260Z,102301.94
2023-01-02T22:15:27.306Z,102319.16
2023-01-02T22:17:54.308Z,102315.72
2023-01-02T22:20:21.638Z,102321.75
2023-01-02T22:22:49.557Z,102322.41
2023-01-02T22:25:16.753Z,102329.09
2023-01-02T22:27:43.835Z,102331.44
2023-01-02T22:30:22.830Z,102343.13
2023-01-02T22:32:54.136Z,102343.81
2023-01-02T22:35:21.720Z,102348.69
2023-01-02T22:37:48.805Z,102347.59
2023-01-02T22:40:15.987Z,102355.19
2023-01-02T22:43:01.129Z,102357.63
2023-01-02T22:45:39.667Z,102353.06
2023-01-02T22:48:15.139Z,102360.28
2023-01-02T22:50:45.257Z,102352.41
2023-01-02T22:53:21.706Z,102364.06
2023-01-02T22:55:49.188Z,102368.41
2023-01-02T22:58:16.812Z,102368.41
2023-01-02T23:00:46.335Z,102367.63
2023-01-02T23:03:15.237Z,102373.94
2023-01-02T23:05:43.272Z,102370.63
2023-01-02T23:08:10.573Z,102359.75
2023-01-02T23:10:38.077Z,102387.66
2023-01-02T23:13:05.324Z,102388.44
2023-01-02T23:15:32.419Z,102396.13
2023-01-02T23:18:18.129Z,102395.03
2023-01-02T23:20:45.160Z,102393.34
2023-01-02T23:23:13.005Z,102395.13
2023-01-02T23:25:43.437Z,102388.00
2023-01-02T23:28:20.480Z,102390.34
2023-01-02T23:30:57.498Z,102386.00
2023-01-02T23:33:24.685Z,102396.13
2023-01-02T23:35:52.591Z,102407.06
2023-01-02T23:38:20.658Z,102399.81
2023-01-02T23:40:47.803Z,102411.75
2023-01-02T23:43:15.441Z,102411.50
2023-01-02T23:45:42.709Z,102406.72
2023-01-02T23:48:09.755Z,102413.63
2023-01-02T23:50:38.014Z,102406.63
2023-01-02T23:53:05.047Z,102413.28
2023-01-02T23:55:32.061Z,102415.50
2023-01-02T23:57:59.029Z,102412.75
